Time,TemperatureF,DewpointF,PressureIn,WindDirection,WindDirectionDegrees,WindSpeedMPH,WindSpeedGustMPH,Humidity,HourlyPrecipIn,Conditions,Clouds,dailyrainin,SoftwareType,DateUTC
2013-10-13 00:00:00,54.2,47.5,29.86,NE,50,0.6,1.3,77,0.00,n/a,n/a,-99.99,Henriksen +1-Wire,2013-10-13 07:00:00,
2013-10-13 00:06:00,53.9,47.5,29.86,NE,34,0.6,0.8,78,0.00,n/a,n/a,-99.99,Henriksen +1-Wire,2013-10-13 07:06:00,
2013-10-13 00:12:00,53.7,47.4,29.85,NE,54,0.6,0.8,79,0.00,n/a,n/a,-99.99,Henriksen +1-Wire,2013-10-13 07:12:00,
2013-10-13 00:18:00,53.6,47.5,29.85,ENE,73,0.6,1.3,79,0.00,n/a,n/a,-99.99,Henriksen +1-Wire,2013-10-13 07:18:00,
2013-10-13 00:24:00,53.5,47.6,29.85,NW,309,0.6,1.3,80,0.00,n/a,n/a,-99.99,Henriksen +1-Wire,2013-10-13 07:24:00,
2013-10-13 00:30:00,53.4,47.6,29.85,NE,42,0.6,0.8,80,0.00,n/a,n/a,-99.99,Henriksen +1-Wire,2013-10-13 07:30:00,
2013-10-13 00:36:00,53.2,47.5,29.85,NE,47,0.6,0.8,80,0.00,n/a,n/a,-99.99,Henriksen +1-Wire,2013-10-13 07:36:00,
2013-10-13 00:42:00,53.1,47.4,29.86,NNE,24,0.6,0.8,81,0.00,n/a,n/a,-99.99,Henriksen +1-Wire,2013-10-13 07:42:00,
2013-10-13 00:48:00,52.9,47.4,29.86,NNE,20,0.6,0.8,81,0.00,n/a,n/a,-99.99,Henriksen +1-Wire,2013-10-13 07:48:00,
2013-10-13 00:54:00,52.9,47.6,29.86,East,81,0.6,0.8,81,0.00,n/a,n/a,-99.99,Henriksen +1-Wire,2013-10-13 07:54:00,
2013-10-13 01:00:00,52.9,47.7,29.86,East,81,0.7,3.8,82,0.00,n/a,n/a,-99.99,Henriksen +1-Wire,2013-10-13 08:00:00,
2013-10-13 01:06:00,53.0,47.8,29.86,NNW,339,0.6,3.8,82,0.00,n/a,n/a,-99.99,Henriksen +1-Wire,2013-10-13 08:06:00,
2013-10-13 01:12:00,53.2,48.0,29.86,West,268,0.6,0.8,82,0.00,n/a,n/a,-99.99,Henriksen +1-Wire,2013-10-13 08:12:00,
2013-10-13 01:18:00,53.3,47.9,29.86,West,269,0.6,0.8,81,0.00,n/a,n/a,-99.99,Henriksen +1-Wire,2013-10-13 08:18:00,
2013-10-13 01:24:00,53.2,47.7,29.86,SE,129,0.6,0.8,81,0.00,n/a,n/a,-99.99,Henriksen +1-Wire,2013-10-13 08:24:00,
2013-10-13 01:30:00,52.9,47.3,29.86,SE,141,0.6,0.8,81,0.00,n/a,n/a,-99.99,Henriksen +1-Wire,2013-10-13 08:30:00,
2013-10-13 01:36:00,52.7,47.2,29.87,NW,320,0.6,0.8,81,0.00,n/a,n/a,-99.99,Henriksen +1-Wire,2013-10-13 08:36:00,
2013-10-13 01:42:00,52.6,47.2,29.86,WNW,288,0.6,0.8,81,0.00,n/a,n/a,-99.99,Henriksen +1-Wire,2013-10-13 08:42:00,
2013-10-13 01:48:00,52.5,47.2,29.86,NW,315,0.6,0.8,81,0.00,n/a,n/a,-99.99,Henriksen +1-Wire,2013-10-13 08:48:00,
2013-10-13 01:54:00,52.5,47.2,29.87,NNW,341,0.6,0.8,82,0.00,n/a,n/a,-99.99,Henriksen +1-Wire,2013-10-13 08:54:00,
2013-10-13 02:00:00,52.5,47.2,29.87,NNW,336,0.6,0.8,82,0.00,n/a,n/a,-99.99,Henriksen +1-Wire,2013-10-13 09:00:00,
2013-10-13 02:06:00,52.4,47.3,29.87,North,352,0.6,0.8,82,0.00,n/a,n/a,-99.99,Henriksen +1-Wire,2013-10-13 09:06:00,
2013-10-13 02:12:00,52.4,47.3,29.87,NNW,328,0.6,0.8,82,0.00,n/a,n/a,-99.99,Henriksen +1-Wire,2013-10-13 09:12:00,
2013-10-13 02:18:00,52.3,47.3,29.87,NW,325,0.6,0.8,82,0.00,n/a,n/a,-99.99,Henriksen +1-Wire,2013-10-13 09:18:00,
2013-10-13 02:24:00,52.2,47.2,29.87,North,353,0.6,0.8,83,0.00,n/a,n/a,-99.99,Henriksen +1-Wire,2013-10-13 09:24:00,
2013-10-13 02:30:00,52.1,47.3,29.87,NNW,347,0.6,0.8,83,0.00,n/a,n/a,-99.99,Henriksen +1-Wire,2013-10-13 09:30:00,
2013-10-13 02:36:00,51.9,47.4,29.87,NNE,21,0.6,0.8,84,0.00,n/a,n/a,-99.99,Henriksen +1-Wire,2013-10-13 09:36:00,
2013-10-13 02:42:00,51.8,47.3,29.87,West,266,0.6,0.8,84,0.00,n/a,n/a,-99.99,Henriksen +1-Wire,2013-10-13 09:42:00,
2013-10-13 02:48:00,51.7,47.3,29.87,West,261,0.6,0.8,84,0.00,n/a,n/a,-99.99,Henriksen +1-Wire,2013-10-13 09:48:00,
2013-10-13 02:54:00,51.6,47.4,29.87,West,275,0.6,0.8,85,0.00,n/a,n/a,-99.99,Henriksen +1-Wire,2013-10-13 09:54:00,
2013-10-13 03:00:00,51.6,47.5,29.87,WNW,284,0.6,0.8,85,0.00,n/a,n/a,-99.99,Henriksen +1-Wire,2013-10-13 10:00:00,
2013-10-13 03:06:00,51.7,47.7,29.87,WNW,301,0.6,0.8,86,0.00,n/a,n/a,-99.99,Henriksen +1-Wire,2013-10-13 10:06:00,
2013-10-13 03:12:00,52.0,48.2,29.87,WNW,290,0.5,2.5,86,0.00,n/a,n/a,-99.99,Henriksen +1-Wire,2013-10-13 10:12:00,
2013-10-13 03:18:00,52.4,48.7,29.87,WNW,296,0.6,4.5,87,0.00,n/a,n/a,-99.99,Henriksen +1-Wire,2013-10-13 10:18:00,
2013-10-13 03:24:00,52.7,49.0,29.87,NW,310,0.8,4.5,87,0.00,n/a,n/a,-99.99,Henriksen +1-Wire,2013-10-13 10:24:00,
2013-10-13 03:30:00,52.9,49.2,29.87,WNW,298,0.6,2.6,87,0.00,n/a,n/a,-99.99,Henriksen +1-Wire,2013-10-13 10:30:00,
2013-10-13 03:36:00,53.1,49.4,29.87,WNW,303,0.6,5.2,87,0.00,n/a,n/a,-99.99,Henriksen +1-Wire,2013-10-13 10:36:00,
2013-10-13 03:42:00,53.2,49.5,29.87,WNW,303,0.4,2.6,87,0.00,n/a,n/a,-99.99,Henriksen +1-Wire,2013-10-13 10:42:00,
2013-10-13 03:48:00,53.2,49.5,29.87,WNW,291,1.0,4.5,87,0.00,n/a,n/a,-99.99,Henriksen +1-Wire,2013-10-13 10:48:00,
2013-10-13 03:54:00,53.3,49.5,29.87,NW,304,0.7,3.9,86,0.00,n/a,n/a,-99.99,Henriksen +1-Wire,2013-10-13 10:54:00,
2013-10-13 04:00:00,53.3,49.4,29.87,NW,305,1.1,3.9,86,0.00,n/a,n/a,-99.99,Henriksen +1-Wire,2013-10-13 11:00:00,
2013-10-13 04:06:00,53.2,49.3,29.87,NW,311,1.1,3.9,86,0.00,n/a,n/a,-99.99,Henriksen +1-Wire,2013-10-13 11:06:00,
2013-10-13 04:12:00,53.1,49.2,29.87,NW,313,1.3,6.4,86,0.00,n/a,n/a,-99.99,Henriksen +1-Wire,2013-10-13 11:12:00,
2013-10-13 04:18:00,53.1,49.1,29.87,NW,308,1.0,7.1,86,0.00,n/a,n/a,-99.99,Henriksen +1-Wire,2013-10-13 11:18:00,
2013-10-13 04:24:00,53.0,48.9,29.87,NW,308,1.1,7.1,85,0.00,n/a,n/a,-99.99,Henriksen +1-Wire,2013-10-13 11:24:00,
2013-10-13 04:30:00,52.9,48.8,29.87,NW,306,2.1,5.8,85,0.00,n/a,n/a,-99.99,Henriksen +1-Wire,2013-10-13 11:30:00,
2013-10-13 04:36:00,52.8,48.7,29.88,WNW,287,1.1,5.8,85,0.00,n/a,n/a,-99.99,Henriksen +1-Wire,2013-10-13 11:36:00,
2013-10-13 04:42:00,52.7,48.6,29.88,WNW,294,3.3,5.8,85,0.00,n/a,n/a,-99.99,Henriksen +1-Wire,2013-10-13 11:42:00,
2013-10-13 04:48:00,52.5,48.5,29.88,WNW,302,2.9,6.5,85,0.00,n/a,n/a,-99.99,Henriksen +1-Wire,2013-10-13 11:48:00,
2013-10-13 04:54:00,52.5,48.5,29.88,NW,306,1.5,6.5,86,0.00,n/a,n/a,-99.99,Henriksen +1-Wire,2013-10-13 11:54:00,
2013-10-13 05:00:00,52.4,48.4,29.89,NW,304,2.0,6.4,86,0.00,n/a,n/a,-99.99,Henriksen +1-Wire,2013-10-13 12:00:00,
2013-10-13 05:06:00,52.3,48.3,29.89,NW,310,2.8,7.7,86,0.00,n/a,n/a,-99.99,Henriksen +1-Wire,2013-10-13 12:06:00,
2013-10-13 05:12:00,52.2,48.3,29.89,NW,310,1.7,7.7,86,0.00,n/a,n/a,-99.99,Henriksen +1-Wire,2013-10-13 12:12:00,
2013-10-13 05:18:00,52.1,48.2,29.89,NW,310,1.2,6.7,86,0.00,n/a,n/a,-99.99,Henriksen +1-Wire,2013-10-13 12:18:00,
2013-10-13 05:24:00,52.0,48.0,29.89,WNW,295,0.9,5.8,86,0.00,n/a,n/a,-99.99,Henriksen +1-Wire,2013-10-13 12:24:00,
2013-10-13 05:30:00,51.8,47.9,29.89,NW,312,0.8,6.5,86,0.00,n/a,n/a,-99.99,Henriksen +1-Wire,2013-10-13 12:30:00,
2013-10-13 05:36:00,51.7,47.8,29.89,NW,320,0.6,6.5,86,0.00,n/a,n/a,-99.99,Henriksen +1-Wire,2013-10-13 12:36:00,
2013-10-13 05:42:00,51.7,47.8,29.89,NW,318,0.2,5.2,86,0.00,n/a,n/a,-99.99,Henriksen +1-Wire,2013-10-13 12:42:00,
2013-10-13 05:48:00,51.5,47.7,29.89,NW,326,1.6,3.9,86,0.00,n/a,n/a,-99.99,Henriksen +1-Wire,2013-10-13 12:48:00,
2013-10-13 05:54:00,51.3,47.5,29.89,NW,320,0.0,3.9,86,0.00,n/a,n/a,-99.99,Henriksen +1-Wire,2013-10-13 12:54:00,
2013-10-13 06:00:00,51.0,47.5,29.89,NW,322,0.0,1.3,87,0.00,n/a,n/a,-99.99,Henriksen +1-Wire,2013-10-13 13:00:00,
2013-10-13 06:06:00,50.8,47.4,29.89,NW,310,0.6,0.8,88,0.00,n/a,n/a,-99.99,Henriksen +1-Wire,2013-10-13 13:06:00,
2013-10-13 06:12:00,50.6,47.3,29.89,NW,308,0.6,0.8,88,0.00,n/a,n/a,-99.99,Henriksen +1-Wire,2013-10-13 13:12:00,
2013-10-13 06:18:00,50.3,47.2,29.89,NNW,330,0.6,0.8,88,0.00,n/a,n/a,-99.99,Henriksen +1-Wire,2013-10-13 13:18:00,
2013-10-13 06:24:00,50.1,47.1,29.89,North,2,0.6,0.8,89,0.00,n/a,n/a,-99.99,Henriksen +1-Wire,2013-10-13 13:24:00,
2013-10-13 06:30:00,49.9,47.0,29.90,North,352,0.6,0.7,89,0.00,n/a,n/a,-99.99,Henriksen +1-Wire,2013-10-13 13:30:00,
2013-10-13 06:36:00,49.6,46.8,29.90,NW,326,0.6,0.8,90,0.00,n/a,n/a,-99.99,Henriksen +1-Wire,2013-10-13 13:36:00,
2013-10-13 06:42:00,49.4,46.7,29.90,NW,316,0.6,0.8,90,0.00,n/a,n/a,-99.99,Henriksen +1-Wire,2013-10-13 13:42:00,
2013-10-13 06:48:00,49.2,46.8,29.90,NNW,339,0.6,0.8,91,0.00,n/a,n/a,-99.99,Henriksen +1-Wire,2013-10-13 13:48:00,
2013-10-13 06:54:00,49.1,46.9,29.90,NNW,328,0.6,0.8,92,0.00,n/a,n/a,-99.99,Henriksen +1-Wire,2013-10-13 13:54:00,
2013-10-13 07:00:00,49.1,47.2,29.90,NNW,335,0.6,0.8,93,0.00,n/a,n/a,-99.99,Henriksen +1-Wire,2013-10-13 14:00:00,
2013-10-13 07:06:00,49.0,47.4,29.91,NW,310,0.6,0.8,93,0.00,n/a,n/a,-99.99,Henriksen +1-Wire,2013-10-13 14:06:00,
2013-10-13 07:12:00,48.9,47.3,29.91,NNW,334,0.0,0.8,94,0.00,n/a,n/a,-99.99,Henriksen +1-Wire,2013-10-13 14:12:00,
2013-10-13 07:18:00,48.6,47.1,29.91,NW,305,0.0,0.7,94,0.00,n/a,n/a,-99.99,Henriksen +1-Wire,2013-10-13 14:18:00,
2013-10-13 07:24:00,48.4,46.9,29.91,NW,315,0.0,0.0,94,0.00,n/a,n/a,-99.99,Henriksen +1-Wire,2013-10-13 14:24:00,
2013-10-13 07:30:00,48.2,46.8,29.92,NW,317,0.0,0.0,94,0.00,n/a,n/a,-99.99,Henriksen +1-Wire,2013-10-13 14:30:00,
2013-10-13 07:36:00,48.1,46.8,29.92,NW,308,0.0,0.0,95,0.00,n/a,n/a,-99.99,Henriksen +1-Wire,2013-10-13 14:36:00,
2013-10-13 07:42:00,48.0,46.8,29.92,WNW,300,0.6,0.7,95,0.00,n/a,n/a,-99.99,Henriksen +1-Wire,2013-10-13 14:42:00,
2013-10-13 07:48:00,48.0,46.8,29.92,NW,324,0.7,3.2,95,0.00,n/a,n/a,-99.99,Henriksen +1-Wire,2013-10-13 14:48:00,
2013-10-13 07:54:00,48.1,46.9,29.92,North,355,0.7,3.2,95,0.00,n/a,n/a,-99.99,Henriksen +1-Wire,2013-10-13 14:54:00,
2013-10-13 08:00:00,48.3,47.0,29.92,North,351,0.9,2.6,95,0.00,n/a,n/a,-99.99,Henriksen +1-Wire,2013-10-13 15:00:00,
2013-10-13 08:06:00,48.6,47.3,29.92,NNW,342,0.8,5.8,95,0.00,n/a,n/a,-99.99,Henriksen +1-Wire,2013-10-13 15:06:00,
2013-10-13 08:12:00,49.5,48.0,29.93,NNW,332,1.8,5.8,94,0.00,n/a,n/a,-99.99,Henriksen +1-Wire,2013-10-13 15:12:00,
2013-10-13 08:18:00,50.4,48.4,29.93,NNW,339,2.0,4.5,92,0.00,n/a,n/a,-99.99,Henriksen +1-Wire,2013-10-13 15:18:00,
2013-10-13 08:24:00,51.5,48.8,29.93,North,350,2.9,5.9,90,0.00,n/a,n/a,-99.99,Henriksen +1-Wire,2013-10-13 15:24:00,
2013-10-13 08:30:00,52.5,49.2,29.93,NNW,341,1.8,5.9,88,0.00,n/a,n/a,-99.99,Henriksen +1-Wire,2013-10-13 15:30:00,
2013-10-13 08:36:00,53.2,49.0,29.93,NNW,333,1.3,5.2,85,0.00,n/a,n/a,-99.99,Henriksen +1-Wire,2013-10-13 15:36:00,
2013-10-13 08:42:00,54.0,48.9,29.93,North,349,1.6,7.1,82,0.00,n/a,n/a,-99.99,Henriksen +1-Wire,2013-10-13 15:42:00,
2013-10-13 08:48:00,54.8,48.9,29.93,NNW,340,1.3,7.1,80,0.00,n/a,n/a,-99.99,Henriksen +1-Wire,2013-10-13 15:48:00,
2013-10-13 08:54:00,55.4,48.8,29.94,NNW,346,3.3,7.8,78,0.00,n/a,n/a,-99.99,Henriksen +1-Wire,2013-10-13 15:54:00,
2013-10-13 09:00:00,55.7,48.5,29.94,NNW,334,1.7,7.8,76,0.00,n/a,n/a,-99.99,Henriksen +1-Wire,2013-10-13 16:00:00,
2013-10-13 09:06:00,56.2,48.4,29.94,NW,312,2.7,5.2,74,0.00,n/a,n/a,-99.99,Henriksen +1-Wire,2013-10-13 16:06:00,
2013-10-13 09:12:00,56.4,48.1,29.94,NW,308,2.9,5.8,73,0.00,n/a,n/a,-99.99,Henriksen +1-Wire,2013-10-13 16:12:00,
2013-10-13 09:18:00,56.6,48.0,29.94,WNW,303,3.1,7.8,72,0.00,n/a,n/a,-99.99,Henriksen +1-Wire,2013-10-13 16:18:00,
2013-10-13 09:24:00,57.3,48.1,29.94,NNW,339,3.7,7.8,71,0.00,n/a,n/a,-99.99,Henriksen +1-Wire,2013-10-13 16:24:00,
2013-10-13 09:30:00,57.9,48.2,29.94,NNW,332,3.1,7.8,69,0.00,n/a,n/a,-99.99,Henriksen +1-Wire,2013-10-13 16:30:00,
2013-10-13 09:36:00,58.6,47.9,29.94,NW,312,4.5,9.1,67,0.00,n/a,n/a,-99.99,Henriksen +1-Wire,2013-10-13 16:36:00,
2013-10-13 09:42:00,59.1,47.8,29.94,WNW,292,3.1,9.1,65,0.00,n/a,n/a,-99.99,Henriksen +1-Wire,2013-10-13 16:42:00,
2013-10-13 09:48:00,59.4,47.4,29.95,NNW,327,4.3,8.4,64,0.00,n/a,n/a,-99.99,Henriksen +1-Wire,2013-10-13 16:48:00,
2013-10-13 09:54:00,60.1,47.3,29.95,NW,316,3.3,8.4,62,0.00,n/a,n/a,-99.99,Henriksen +1-Wire,2013-10-13 16:54:00,
2013-10-13 10:00:00,60.6,47.3,29.95,NW,316,3.7,7.8,61,0.00,n/a,n/a,-99.99,Henriksen +1-Wire,2013-10-13 17:00:00,
2013-10-13 10:06:00,61.1,47.3,29.95,NNW,330,4.1,8.4,59,0.00,n/a,n/a,-99.99,Henriksen +1-Wire,2013-10-13 17:06:00,
2013-10-13 10:12:00,61.6,47.2,29.95,NNW,343,5.4,10.4,58,0.00,n/a,n/a,-99.99,Henriksen +1-Wire,2013-10-13 17:12:00,
2013-10-13 10:18:00,62.0,46.9,29.95,NNW,338,4.3,10.4,57,0.00,n/a,n/a,-99.99,Henriksen +1-Wire,2013-10-13 17:18:00,
2013-10-13 10:24:00,62.5,46.9,29.95,NNW,331,1.8,7.8,56,0.00,n/a,n/a,-99.99,Henriksen +1-Wire,2013-10-13 17:24:00,
2013-10-13 10:30:00,63.2,47.1,29.95,NW,325,2.6,7.3,55,0.00,n/a,n/a,-99.99,Henriksen +1-Wire,2013-10-13 17:30:00,
2013-10-13 10:36:00,63.9,47.4,29.95,NW,312,4.0,7.8,54,0.00,n/a,n/a,-99.99,Henriksen +1-Wire,2013-10-13 17:36:00,
2013-10-13 10:42:00,64.4,47.6,29.95,NW,321,3.5,7.8,54,0.00,n/a,n/a,-99.99,Henriksen +1-Wire,2013-10-13 17:42:00,
2013-10-13 10:48:00,64.9,47.6,29.96,NNW,327,4.3,9.2,53,0.00,n/a,n/a,-99.99,Henriksen +1-Wire,2013-10-13 17:48:00,
2013-10-13 10:54:00,65.3,47.4,29.95,NW,322,2.9,9.2,51,0.00,n/a,n/a,-99.99,Henriksen +1-Wire,2013-10-13 17:54:00,
2013-10-13 11:00:00,66.0,47.5,29.95,NW,316,3.6,7.2,50,0.00,n/a,n/a,-99.99,Henriksen +1-Wire,2013-10-13 18:00:00,
2013-10-13 11:06:00,66.6,47.6,29.95,NW,315,4.3,7.8,49,0.00,n/a,n/a,-99.99,Henriksen +1-Wire,2013-10-13 18:06:00,
2013-10-13 11:12:00,67.4,47.8,29.95,NW,310,4.2,8.1,48,0.00,n/a,n/a,-99.99,Henriksen +1-Wire,2013-10-13 18:12:00,
2013-10-13 11:18:00,67.8,47.5,29.95,NW,310,4.5,8.1,47,0.00,n/a,n/a,-99.99,Henriksen +1-Wire,2013-10-13 18:18:00,
2013-10-13 11:24:00,68.1,47.3,29.95,West,274,4.7,9.7,46,0.00,n/a,n/a,-99.99,Henriksen +1-Wire,2013-10-13 18:24:00,
2013-10-13 11:30:00,68.8,47.4,29.95,WNW,303,3.4,9.7,45,0.00,n/a,n/a,-99.99,Henriksen +1-Wire,2013-10-13 18:30:00,
2013-10-13 11:36:00,69.4,47.4,29.95,NNW,331,4.6,9.0,44,0.00,n/a,n/a,-99.99,Henriksen +1-Wire,2013-10-13 18:36:00,
2013-10-13 11:42:00,69.9,47.1,29.95,NW,309,2.9,9.0,43,0.00,n/a,n/a,-99.99,Henriksen +1-Wire,2013-10-13 18:42:00,
2013-10-13 11:48:00,70.4,46.8,29.95,NW,305,4.1,8.5,42,0.00,n/a,n/a,-99.99,Henriksen +1-Wire,2013-10-13 18:48:00,
2013-10-13 11:54:00,71.0,46.7,29.95,WNW,282,4.2,8.5,41,0.00,n/a,n/a,-99.99,Henriksen +1-Wire,2013-10-13 18:54:00,
2013-10-13 12:00:00,71.1,46.2,29.95,West,280,6.1,12.3,40,0.00,n/a,n/a,-99.99,Henriksen +1-Wire,2013-10-13 19:00:00,
2013-10-13 12:06:00,71.2,46.1,29.95,WNW,289,5.4,10.7,40,0.00,n/a,n/a,-99.99,Henriksen +1-Wire,2013-10-13 19:06:00,
2013-10-13 12:12:00,71.5,46.3,29.95,WNW,292,4.7,10.7,40,0.00,n/a,n/a,-99.99,Henriksen +1-Wire,2013-10-13 19:12:00,
2013-10-13 12:18:00,71.8,46.5,29.95,NW,307,7.1,11.7,39,0.00,n/a,n/a,-99.99,Henriksen +1-Wire,2013-10-13 19:18:00,
2013-10-13 12:24:00,71.8,46.2,29.95,WNW,300,5.9,11.7,39,0.00,n/a,n/a,-99.99,Henriksen +1-Wire,2013-10-13 19:24:00,
2013-10-13 12:30:00,72.2,46.3,29.95,NW,304,4.6,14.3,39,0.00,n/a,n/a,-99.99,Henriksen +1-Wire,2013-10-13 19:30:00,
2013-10-13 12:36:00,72.5,46.5,29.95,West,280,5.1,14.3,39,0.00,n/a,n/a,-99.99,Henriksen +1-Wire,2013-10-13 19:36:00,
2013-10-13 12:42:00,72.8,46.5,29.95,WNW,303,4.7,12.3,38,0.00,n/a,n/a,-99.99,Henriksen +1-Wire,2013-10-13 19:42:00,
2013-10-13 12:48:00,73.2,46.4,29.95,NW,309,6.0,12.3,38,0.00,n/a,n/a,-99.99,Henriksen +1-Wire,2013-10-13 19:48:00,
2013-10-13 12:54:00,73.5,46.4,29.95,NW,315,5.8,11.2,37,0.00,n/a,n/a,-99.99,Henriksen +1-Wire,2013-10-13 19:54:00,
2013-10-13 13:00:00,73.9,46.6,29.95,NW,310,4.2,10.7,37,0.00,n/a,n/a,-99.99,Henriksen +1-Wire,2013-10-13 20:00:00,
2013-10-13 13:06:00,74.0,46.4,29.95,NW,325,4.5,11.0,36,0.00,n/a,n/a,-99.99,Henriksen +1-Wire,2013-10-13 20:06:00,
2013-10-13 13:12:00,74.5,46.7,29.95,WNW,284,4.7,11.6,36,0.00,n/a,n/a,-99.99,Henriksen +1-Wire,2013-10-13 20:12:00,
2013-10-13 13:18:00,74.9,47.0,29.94,WNW,301,5.4,11.6,36,0.00,n/a,n/a,-99.99,Henriksen +1-Wire,2013-10-13 20:18:00,
2013-10-13 13:24:00,75.1,47.3,29.94,West,264,4.9,9.7,36,0.00,n/a,n/a,-99.99,Henriksen +1-Wire,2013-10-13 20:24:00,
2013-10-13 13:30:00,75.7,47.7,29.94,NW,308,4.1,9.7,36,0.00,n/a,n/a,-99.99,Henriksen +1-Wire,2013-10-13 20:30:00,
2013-10-13 13:36:00,76.2,47.6,29.94,NW,305,5.3,9.7,35,0.00,n/a,n/a,-99.99,Henriksen +1-Wire,2013-10-13 20:36:00,
2013-10-13 13:42:00,76.2,47.2,29.94,NW,312,4.6,9.7,35,0.00,n/a,n/a,-99.99,Henriksen +1-Wire,2013-10-13 20:42:00,
2013-10-13 13:48:00,76.3,47.0,29.94,NW,312,5.1,11.2,35,0.00,n/a,n/a,-99.99,Henriksen +1-Wire,2013-10-13 20:48:00,
2013-10-13 13:54:00,76.4,47.4,29.94,West,281,4.2,11.2,35,0.00,n/a,n/a,-99.99,Henriksen +1-Wire,2013-10-13 20:54:00,
2013-10-13 14:00:00,76.5,47.6,29.94,West,275,5.9,11.0,35,0.00,n/a,n/a,-99.99,Henriksen +1-Wire,2013-10-13 21:00:00,
2013-10-13 14:06:00,76.5,47.3,29.93,NW,311,4.1,11.0,35,0.00,n/a,n/a,-99.99,Henriksen +1-Wire,2013-10-13 21:06:00,
2013-10-13 14:12:00,76.6,47.2,29.93,West,278,6.3,11.0,34,0.00,n/a,n/a,-99.99,Henriksen +1-Wire,2013-10-13 21:12:00,
2013-10-13 14:18:00,76.5,47.0,29.93,WNW,302,5.1,11.0,34,0.00,n/a,n/a,-99.99,Henriksen +1-Wire,2013-10-13 21:18:00,
2013-10-13 14:24:00,77.0,47.3,29.93,NW,320,4.1,10.9,34,0.00,n/a,n/a,-99.99,Henriksen +1-Wire,2013-10-13 21:24:00,
2013-10-13 14:30:00,77.2,47.2,29.93,NW,307,5.8,10.3,34,0.00,n/a,n/a,-99.99,Henriksen +1-Wire,2013-10-13 21:30:00,
2013-10-13 14:36:00,77.3,47.0,29.93,WNW,292,6.0,12.5,33,0.00,n/a,n/a,-99.99,Henriksen +1-Wire,2013-10-13 21:36:00,
2013-10-13 14:42:00,77.0,46.8,29.93,West,272,5.4,12.5,33,0.00,n/a,n/a,-99.99,Henriksen +1-Wire,2013-10-13 21:42:00,
2013-10-13 14:48:00,77.0,46.8,29.94,NW,313,3.3,12.1,33,0.00,n/a,n/a,-99.99,Henriksen +1-Wire,2013-10-13 21:48:00,
2013-10-13 14:54:00,77.3,46.9,29.94,NW,311,4.3,10.4,33,0.00,n/a,n/a,-99.99,Henriksen +1-Wire,2013-10-13 21:54:00,
2013-10-13 15:00:00,77.5,46.9,29.94,NW,321,5.3,9.1,33,0.00,n/a,n/a,-99.99,Henriksen +1-Wire,2013-10-13 22:00:00,
2013-10-13 15:06:00,77.7,47.0,29.94,NW,307,2.6,9.1,33,0.00,n/a,n/a,-99.99,Henriksen +1-Wire,2013-10-13 22:06:00,
2013-10-13 15:12:00,78.2,47.3,29.94,West,269,1.7,7.0,33,0.00,n/a,n/a,-99.99,Henriksen +1-Wire,2013-10-13 22:12:00,
2013-10-13 15:18:00,78.6,47.1,29.94,WNW,299,5.2,9.2,32,0.00,n/a,n/a,-99.99,Henriksen +1-Wire,2013-10-13 22:18:00,
2013-10-13 15:24:00,78.5,46.7,29.94,West,279,6.1,11.6,32,0.00,n/a,n/a,-99.99,Henriksen +1-Wire,2013-10-13 22:24:00,
2013-10-13 15:30:00,78.4,46.4,29.95,WNW,302,4.9,11.6,31,0.00,n/a,n/a,-99.99,Henriksen +1-Wire,2013-10-13 22:30:00,
2013-10-13 15:36:00,78.5,46.4,29.95,NW,312,3.9,8.4,31,0.00,n/a,n/a,-99.99,Henriksen +1-Wire,2013-10-13 22:36:00,
2013-10-13 15:42:00,78.5,46.1,29.95,West,281,3.8,7.1,31,0.00,n/a,n/a,-99.99,Henriksen +1-Wire,2013-10-13 22:42:00,
2013-10-13 15:48:00,78.4,46.0,29.95,WNW,291,4.7,9.7,31,0.00,n/a,n/a,-99.99,Henriksen +1-Wire,2013-10-13 22:48:00,
2013-10-13 15:54:00,78.3,45.7,29.95,NW,308,4.9,11.0,31,0.00,n/a,n/a,-99.99,Henriksen +1-Wire,2013-10-13 22:54:00,
2013-10-13 16:00:00,78.3,45.7,29.95,NW,313,3.5,11.0,31,0.00,n/a,n/a,-99.99,Henriksen +1-Wire,2013-10-13 23:00:00,
2013-10-13 16:06:00,78.2,45.6,29.95,NW,314,4.7,12.3,31,0.00,n/a,n/a,-99.99,Henriksen +1-Wire,2013-10-13 23:06:00,
2013-10-13 16:12:00,77.8,45.4,29.95,WNW,299,4.3,11.2,31,0.00,n/a,n/a,-99.99,Henriksen +1-Wire,2013-10-13 23:12:00,
2013-10-13 16:18:00,77.6,45.3,29.95,NW,316,4.8,9.7,31,0.00,n/a,n/a,-99.99,Henriksen +1-Wire,2013-10-13 23:18:00,
2013-10-13 16:24:00,77.4,45.1,29.96,WNW,303,4.8,9.7,31,0.00,n/a,n/a,-99.99,Henriksen +1-Wire,2013-10-13 23:24:00,
2013-10-13 16:30:00,77.2,44.9,29.96,NW,312,5.8,10.4,31,0.00,n/a,n/a,-99.99,Henriksen +1-Wire,2013-10-13 23:30:00,
2013-10-13 16:36:00,76.9,44.7,29.96,West,279,5.3,11.6,31,0.00,n/a,n/a,-99.99,Henriksen +1-Wire,2013-10-13 23:36:00,
2013-10-13 16:42:00,76.8,44.6,29.96,NW,318,4.4,11.6,31,0.00,n/a,n/a,-99.99,Henriksen +1-Wire,2013-10-13 23:42:00,
2013-10-13 16:48:00,76.8,44.6,29.96,WNW,288,5.8,10.5,31,0.00,n/a,n/a,-99.99,Henriksen +1-Wire,2013-10-13 23:48:00,
2013-10-13 16:54:00,76.4,44.1,29.97,WNW,283,5.2,11.0,31,0.00,n/a,n/a,-99.99,Henriksen +1-Wire,2013-10-13 23:54:00,
2013-10-13 17:00:00,76.1,43.9,29.97,NW,314,4.3,11.0,31,0.00,n/a,n/a,-99.99,Henriksen +1-Wire,2013-10-14 00:00:00,
2013-10-13 17:06:00,75.8,43.8,29.97,NW,313,4.8,10.4,31,0.00,n/a,n/a,-99.99,Henriksen +1-Wire,2013-10-14 00:06:00,
2013-10-13 17:12:00,75.6,43.7,29.97,NW,305,4.5,10.4,31,0.00,n/a,n/a,-99.99,Henriksen +1-Wire,2013-10-14 00:12:00,
2013-10-13 17:18:00,75.5,43.7,29.97,NW,306,4.4,12.2,31,0.00,n/a,n/a,-99.99,Henriksen +1-Wire,2013-10-14 00:18:00,
2013-10-13 17:24:00,75.4,43.7,29.97,NW,316,3.7,12.2,31,0.00,n/a,n/a,-99.99,Henriksen +1-Wire,2013-10-14 00:24:00,
2013-10-13 17:30:00,75.2,43.7,29.97,NW,309,4.3,7.8,31,0.00,n/a,n/a,-99.99,Henriksen +1-Wire,2013-10-14 00:30:00,
2013-10-13 17:36:00,75.0,43.7,29.97,NW,314,3.1,7.1,32,0.00,n/a,n/a,-99.99,Henriksen +1-Wire,2013-10-14 00:36:00,
2013-10-13 17:42:00,74.6,43.3,29.97,WNW,288,5.3,9.0,32,0.00,n/a,n/a,-99.99,Henriksen +1-Wire,2013-10-14 00:42:00,
2013-10-13 17:48:00,74.0,42.9,29.97,NW,310,2.9,9.0,32,0.00,n/a,n/a,-99.99,Henriksen +1-Wire,2013-10-14 00:48:00,
2013-10-13 17:54:00,73.5,43.0,29.97,NW,309,2.5,5.8,32,0.00,n/a,n/a,-99.99,Henriksen +1-Wire,2013-10-14 00:54:00,
2013-10-13 18:00:00,72.9,43.0,29.97,NW,307,2.6,5.8,33,0.00,n/a,n/a,-99.99,Henriksen +1-Wire,2013-10-14 01:00:00,
2013-10-13 18:06:00,72.3,43.1,29.96,NW,307,2.7,6.5,34,0.00,n/a,n/a,-99.99,Henriksen +1-Wire,2013-10-14 01:06:00,
2013-10-13 18:12:00,72.0,43.4,29.96,WNW,295,2.2,6.5,35,0.00,n/a,n/a,-99.99,Henriksen +1-Wire,2013-10-14 01:12:00,
2013-10-13 18:18:00,71.4,43.5,29.97,NW,310,1.1,3.9,36,0.00,n/a,n/a,-99.99,Henriksen +1-Wire,2013-10-14 01:18:00,
2013-10-13 18:24:00,70.8,43.5,29.97,WNW,286,1.6,4.1,36,0.00,n/a,n/a,-99.99,Henriksen +1-Wire,2013-10-14 01:24:00,
2013-10-13 18:30:00,70.4,43.7,29.97,WNW,290,0.6,4.1,37,0.00,n/a,n/a,-99.99,Henriksen +1-Wire,2013-10-14 01:30:00,
2013-10-13 18:36:00,69.7,43.7,29.97,West,276,0.7,3.2,38,0.00,n/a,n/a,-99.99,Henriksen +1-Wire,2013-10-14 01:36:00,
2013-10-13 18:42:00,68.9,43.7,29.97,WNW,302,0.6,2.0,39,0.00,n/a,n/a,-99.99,Henriksen +1-Wire,2013-10-14 01:42:00,
2013-10-13 18:48:00,68.2,44.0,29.97,WNW,297,1.0,2.6,41,0.00,n/a,n/a,-99.99,Henriksen +1-Wire,2013-10-14 01:48:00,
2013-10-13 18:54:00,67.4,44.1,29.98,NW,321,0.9,3.2,42,0.00,n/a,n/a,-99.99,Henriksen +1-Wire,2013-10-14 01:54:00,
2013-10-13 19:00:00,66.8,44.3,29.98,NNW,340,0.6,3.2,43,0.00,n/a,n/a,-99.99,Henriksen +1-Wire,2013-10-14 02:00:00,
2013-10-13 19:06:00,66.2,44.4,29.98,North,350,1.0,2.6,44,0.00,n/a,n/a,-99.99,Henriksen +1-Wire,2013-10-14 02:06:00,
2013-10-13 19:12:00,65.7,44.7,29.98,NW,322,0.0,2.6,46,0.00,n/a,n/a,-99.99,Henriksen +1-Wire,2013-10-14 02:12:00,
2013-10-13 19:18:00,65.4,44.7,29.98,NW,310,0.6,2.6,46,0.00,n/a,n/a,-99.99,Henriksen +1-Wire,2013-10-14 02:18:00,
2013-10-13 19:24:00,65.1,44.7,29.99,West,280,0.6,1.9,47,0.00,n/a,n/a,-99.99,Henriksen +1-Wire,2013-10-14 02:24:00,
2013-10-13 19:30:00,64.8,44.6,29.99,West,280,0.6,1.3,47,0.00,n/a,n/a,-99.99,Henriksen +1-Wire,2013-10-14 02:30:00,
2013-10-13 19:36:00,64.5,44.7,29.99,WNW,296,0.6,1.3,48,0.00,n/a,n/a,-99.99,Henriksen +1-Wire,2013-10-14 02:36:00,
2013-10-13 19:42:00,64.1,44.7,29.99,NNW,343,0.6,0.8,48,0.00,n/a,n/a,-99.99,Henriksen +1-Wire,2013-10-14 02:42:00,
2013-10-13 19:48:00,63.5,44.7,29.99,North,352,0.6,0.8,49,0.00,n/a,n/a,-99.99,Henriksen +1-Wire,2013-10-14 02:48:00,
2013-10-13 19:54:00,62.8,44.5,29.99,NNW,340,0.6,0.8,50,0.00,n/a,n/a,-99.99,Henriksen +1-Wire,2013-10-14 02:54:00,
2013-10-13 20:00:00,62.0,44.7,29.99,NNW,342,0.6,0.8,52,0.00,n/a,n/a,-99.99,Henriksen +1-Wire,2013-10-14 03:00:00,
2013-10-13 20:06:00,61.5,44.8,29.99,WNW,290,0.6,0.8,53,0.00,n/a,n/a,-99.99,Henriksen +1-Wire,2013-10-14 03:06:00,
2013-10-13 20:12:00,60.9,44.8,29.99,SW,216,0.6,0.8,55,0.00,n/a,n/a,-99.99,Henriksen +1-Wire,2013-10-14 03:12:00,
2013-10-13 20:18:00,60.4,44.7,30.00,SSW,202,0.6,0.8,55,0.00,n/a,n/a,-99.99,Henriksen +1-Wire,2013-10-14 03:18:00,
2013-10-13 20:24:00,59.9,44.7,30.00,SSW,199,0.6,0.8,56,0.00,n/a,n/a,-99.99,Henriksen +1-Wire,2013-10-14 03:24:00,
2013-10-13 20:30:00,59.5,44.8,30.00,NE,46,0.6,0.8,57,0.00,n/a,n/a,-99.99,Henriksen +1-Wire,2013-10-14 03:30:00,
2013-10-13 20:36:00,58.9,44.9,30.00,WSW,252,0.6,0.8,59,0.00,n/a,n/a,-99.99,Henriksen +1-Wire,2013-10-14 03:36:00,
2013-10-13 20:42:00,58.6,44.9,30.00,WNW,282,0.6,0.8,59,0.00,n/a,n/a,-99.99,Henriksen +1-Wire,2013-10-14 03:42:00,
2013-10-13 20:48:00,58.4,44.9,30.00,NW,321,0.6,0.7,60,0.00,n/a,n/a,-99.99,Henriksen +1-Wire,2013-10-14 03:48:00,
2013-10-13 20:54:00,58.2,45.0,30.00,NW,325,0.6,0.8,61,0.00,n/a,n/a,-99.99,Henriksen +1-Wire,2013-10-14 03:54:00,
2013-10-13 21:00:00,57.8,45.1,30.00,WNW,296,0.6,0.8,62,0.00,n/a,n/a,-99.99,Henriksen +1-Wire,2013-10-14 04:00:00,
2013-10-13 21:06:00,57.5,45.1,30.00,NNE,29,0.6,0.8,62,0.00,n/a,n/a,-99.99,Henriksen +1-Wire,2013-10-14 04:06:00,
2013-10-13 21:12:00,57.2,45.3,30.00,NW,316,0.6,0.8,64,0.00,n/a,n/a,-99.99,Henriksen +1-Wire,2013-10-14 04:12:00,
2013-10-13 21:18:00,56.8,45.4,30.00,ENE,76,0.6,0.8,65,0.00,n/a,n/a,-99.99,Henriksen +1-Wire,2013-10-14 04:18:00,
2013-10-13 21:24:00,56.4,45.6,30.01,East,88,0.6,0.8,66,0.00,n/a,n/a,-99.99,Henriksen +1-Wire,2013-10-14 04:24:00,
2013-10-13 21:30:00,56.1,45.6,30.01,ESE,112,0.6,0.8,67,0.00,n/a,n/a,-99.99,Henriksen +1-Wire,2013-10-14 04:30:00,
2013-10-13 21:36:00,55.7,45.7,30.01,SSW,198,0.6,0.8,68,0.00,n/a,n/a,-99.99,Henriksen +1-Wire,2013-10-14 04:36:00,
2013-10-13 21:42:00,55.3,45.7,30.01,WNW,296,0.6,0.8,69,0.00,n/a,n/a,-99.99,Henriksen +1-Wire,2013-10-14 04:42:00,
2013-10-13 21:48:00,55.1,45.8,30.01,NNW,330,0.6,0.8,70,0.00,n/a,n/a,-99.99,Henriksen +1-Wire,2013-10-14 04:48:00,
2013-10-13 21:54:00,54.9,45.8,30.01,NW,322,0.6,0.8,71,0.00,n/a,n/a,-99.99,Henriksen +1-Wire,2013-10-14 04:54:00,
2013-10-13 22:00:00,54.9,45.9,30.01,NNW,330,0.6,0.8,71,0.00,n/a,n/a,-99.99,Henriksen +1-Wire,2013-10-14 05:00:00,
2013-10-13 22:06:00,54.8,46.0,30.01,North,6,0.6,0.8,71,0.00,n/a,n/a,-99.99,Henriksen +1-Wire,2013-10-14 05:06:00,
2013-10-13 22:12:00,54.6,45.8,30.01,North,3,0.6,0.8,72,0.00,n/a,n/a,-99.99,Henriksen +1-Wire,2013-10-14 05:12:00,
2013-10-13 22:18:00,54.5,45.7,30.01,North,0,0.6,0.8,71,0.00,n/a,n/a,-99.99,Henriksen +1-Wire,2013-10-14 05:18:00,
2013-10-13 22:24:00,54.6,45.9,30.01,North,1,0.6,0.8,72,0.00,n/a,n/a,-99.99,Henriksen +1-Wire,2013-10-14 05:24:00,
2013-10-13 22:30:00,54.7,46.0,30.01,North,0,0.6,0.8,72,0.00,n/a,n/a,-99.99,Henriksen +1-Wire,2013-10-14 05:30:00,
2013-10-13 22:36:00,54.8,46.0,30.01,NW,316,0.6,0.8,72,0.00,n/a,n/a,-99.99,Henriksen +1-Wire,2013-10-14 05:36:00,
2013-10-13 22:42:00,54.7,45.9,30.01,NW,311,0.6,0.8,71,0.00,n/a,n/a,-99.99,Henriksen +1-Wire,2013-10-14 05:42:00,
2013-10-13 22:48:00,54.7,45.8,30.01,NW,314,0.6,0.8,71,0.00,n/a,n/a,-99.99,Henriksen +1-Wire,2013-10-14 05:48:00,
2013-10-13 22:54:00,54.7,45.7,30.01,WSW,252,0.4,0.8,71,0.00,n/a,n/a,-99.99,Henriksen +1-Wire,2013-10-14 05:54:00,
2013-10-13 23:00:00,54.7,45.5,30.01,West,260,0.6,2.6,70,0.00,n/a,n/a,-99.99,Henriksen +1-Wire,2013-10-14 06:00:00,
2013-10-13 23:06:00,54.7,45.2,30.01,WNW,290,0.6,2.6,70,0.00,n/a,n/a,-99.99,Henriksen +1-Wire,2013-10-14 06:06:00,
2013-10-13 23:12:00,54.7,44.9,30.01,West,271,0.6,0.8,69,0.00,n/a,n/a,-99.99,Henriksen +1-Wire,2013-10-14 06:12:00,
2013-10-13 23:18:00,54.7,44.5,30.01,WNW,296,0.7,2.6,68,0.00,n/a,n/a,-99.99,Henriksen +1-Wire,2013-10-14 06:18:00,
2013-10-13 23:24:00,54.8,44.3,30.01,WNW,289,0.6,2.6,67,0.00,n/a,n/a,-99.99,Henriksen +1-Wire,2013-10-14 06:24:00,
2013-10-13 23:30:00,54.7,44.0,30.01,WNW,302,0.6,0.8,67,0.00,n/a,n/a,-99.99,Henriksen +1-Wire,2013-10-14 06:30:00,
2013-10-13 23:36:00,54.5,43.9,30.01,NNE,14,0.6,0.8,66,0.00,n/a,n/a,-99.99,Henriksen +1-Wire,2013-10-14 06:36:00,
2013-10-13 23:42:00,54.3,43.7,30.01,WSW,257,0.6,0.8,67,0.00,n/a,n/a,-99.99,Henriksen +1-Wire,2013-10-14 06:42:00,
2013-10-13 23:48:00,54.0,43.6,30.01,West,267,0.6,0.8,67,0.00,n/a,n/a,-99.99,Henriksen +1-Wire,2013-10-14 06:48:00,
2013-10-13 23:54:00,53.7,43.5,30.01,NNE,24,0.6,0.8,68,0.00,n/a,n/a,-99.99,Henriksen +1-Wire,2013-10-14 06:54:00,